Current Weather

Joliet Rgnl

Joliet, Illinois (KJOT)

Report from: Monday, August 15, 2022 7:35 PM CDT
Current time: Monday, August 15, 2022 7:58 PM CDT

Nearby weather
Weather history
Weather forecast

Temperature22.7°C (72.9°F)
Dew point14.9°C (58.8°F)
Winds 5 kts (2.6 m/s, 5.8 mph) North-Northeast (30°)
Visibility10 mi. (16.1 km)
Clouds Sky clear
Altimeter30.06 in.Hg (1018 mB)
Relative humidity61 %
Density altitude973 ft. (296 m)
Remarks Fully automated report
Automated weather observing station with precipitation discriminator
Flight conditions Visual Meteorological Conditions
Raw dataKJOT 160035Z AUTO 03005KT 10SM CLR 23/15 A3006 RMK AO2 T02270149
An error has occurred. This application may no longer respond until reloaded. Reload 🗙